This is the latest recevied weather packets stored in our database for station/object KQ4NAL. If no packets are shown the sender has not sent any weather packets the latest 10 day(s).
| Time | Temp. | Humidity | Pressure | Rain* | Wind** | Luminosity | Snow |
|---|---|---|---|---|---|---|---|
| 1778101503 | 15.56° C | 56% | 1014.1 hPa | 0 mm | - | 246 W/m² | - |
| 1778101200 | 15.56° C | 55% | 1013.9 hPa | 0 mm | - | 203 W/m² | - |
| 1778100896 | 15.56° C | 56% | 1013.9 hPa | 0 mm | - | 210 W/m² | - |
| 1778100592 | 15.56° C | 54% | 1013.9 hPa | 0 mm | - | 196 W/m² | - |
| 1778100290 | 15.56° C | 55% | 1013.8 hPa | 0 mm | - | 194 W/m² | - |
| 1778099987 | 15.56° C | 52% | 1013.8 hPa | 0 mm | - | 239 W/m² | - |
| 1778099684 | 16.11° C | 53% | 1013.9 hPa | 0 mm | - | 227 W/m² | - |
| 1778099381 | 16.67° C | 50% | 1013.8 hPa | 0 mm | - | 267 W/m² | - |
| 1778099078 | 16.11° C | 53% | 1013.9 hPa | 0 mm | - | 227 W/m² | - |
| 1778098774 | 16.11° C | 51% | 1014.1 hPa | 0 mm | - | 283 W/m² | - |
| 1778098472 | 16.11° C | 52% | 1013.9 hPa | 0 mm | - | 324 W/m² | - |
| 1778098169 | 16.11° C | 51% | 1013.8 hPa | 0 mm | - | 294 W/m² | - |
| 1778097865 | 16.67° C | 50% | 1014 hPa | 0 mm | - | 261 W/m² | - |
| 1778097562 | 16.67° C | 52% | 1013.9 hPa | 0 mm | - | 301 W/m² | - |
| 1778097259 | 17.22° C | 50% | 1014 hPa | 0 mm | - | 359 W/m² | - |
| 1778096955 | 16.67° C | 48% | 1014.1 hPa | 0 mm | - | 363 W/m² | - |
| 1778096652 | 16.11° C | 51% | 1014.2 hPa | 0 mm | - | 341 W/m² | - |
| 1778096349 | 16.11° C | 51% | 1014 hPa | 0 mm | - | 395 W/m² | - |
| 1778096046 | 16.67° C | 49% | 1014.3 hPa | 0 mm | - | 438 W/m² | - |
| 1778095743 | 17.22° C | 51% | 1014 hPa | 0 mm | - | 371 W/m² | - |
| 1778095439 | 18.33° C | 49% | 1013.7 hPa | 0 mm | - | 576 W/m² | - |
| 1778095136 | 17.22° C | 49% | 1013.7 hPa | 0 mm | - | 719 W/m² | - |
| 1778094833 | 16.67° C | 53% | 1013.8 hPa | 0 mm | - | 735 W/m² | - |
| 1778094530 | 17.22° C | 47% | 1013.9 hPa | 0 mm | - | 731 W/m² | - |
| 1778094226 | 16.67° C | 51% | 1013.8 hPa | 0 mm | - | 697 W/m² | - |
* Rain latest hour (hover to see other rain measurements)
** Current wind speed in m/s (hover to see current wind gust speed)